sensor_id;sensor_type;location;lat;lon;timestamp;P1;durP1;ratioP1;P2;durP2;ratioP2
39314;SDS011;28703;44.412;11.918;2023-05-14T00:00:55;11.18;;;8.65;;
39314;SDS011;28703;44.412;11.918;2023-05-14T00:03:44;11.50;;;8.27;;
39314;SDS011;28703;44.412;11.918;2023-05-14T00:06:25;20.73;;;8.82;;
39314;SDS011;28703;44.412;11.918;2023-05-14T00:08:57;11.73;;;8.68;;
39314;SDS011;28703;44.412;11.918;2023-05-14T00:11:23;21.25;;;9.45;;
39314;SDS011;28703;44.412;11.918;2023-05-14T00:13:53;12.38;;;9.18;;
39314;SDS011;28703;44.412;11.918;2023-05-14T00:16:19;14.10;;;9.50;;
39314;SDS011;28703;44.412;11.918;2023-05-14T00:18:46;13.38;;;9.65;;
39314;SDS011;28703;44.412;11.918;2023-05-14T00:21:12;15.55;;;9.20;;
39314;SDS011;28703;44.412;11.918;2023-05-14T00:23:38;14.93;;;9.02;;
39314;SDS011;28703;44.412;11.918;2023-05-14T00:26:09;15.70;;;9.88;;
39314;SDS011;28703;44.412;11.918;2023-05-14T00:28:45;15.32;;;9.35;;
39314;SDS011;28703;44.412;11.918;2023-05-14T00:31:12;12.85;;;9.27;;
39314;SDS011;28703;44.412;11.918;2023-05-14T00:33:39;15.63;;;9.70;;
39314;SDS011;28703;44.412;11.918;2023-05-14T00:36:05;12.38;;;8.95;;
39314;SDS011;28703;44.412;11.918;2023-05-14T00:38:32;13.32;;;9.88;;
39314;SDS011;28703;44.412;11.918;2023-05-14T00:41:01;14.43;;;10.38;;
39314;SDS011;28703;44.412;11.918;2023-05-14T00:43:27;13.50;;;9.85;;
39314;SDS011;28703;44.412;11.918;2023-05-14T00:46:02;18.55;;;9.60;;
39314;SDS011;28703;44.412;11.918;2023-05-14T00:48:31;12.75;;;9.13;;
39314;SDS011;28703;44.412;11.918;2023-05-14T00:50:57;17.65;;;10.02;;
39314;SDS011;28703;44.412;11.918;2023-05-14T00:53:25;14.05;;;9.85;;
39314;SDS011;28703;44.412;11.918;2023-05-14T00:56:03;13.68;;;10.30;;
39314;SDS011;28703;44.412;11.918;2023-05-14T00:58:33;11.82;;;9.40;;
39314;SDS011;28703;44.412;11.918;2023-05-14T01:00:59;17.83;;;10.70;;
39314;SDS011;28703;44.412;11.918;2023-05-14T01:03:29;13.82;;;10.20;;
39314;SDS011;28703;44.412;11.918;2023-05-14T01:09:13;11.48;;;9.75;;
39314;SDS011;28703;44.412;11.918;2023-05-14T01:14:30;17.40;;;11.38;;
39314;SDS011;28703;44.412;11.918;2023-05-14T01:17:14;16.40;;;12.10;;
39314;SDS011;28703;44.412;11.918;2023-05-14T01:19:48;19.75;;;12.95;;
39314;SDS011;28703;44.412;11.918;2023-05-14T01:22:41;13.32;;;10.27;;
39314;SDS011;28703;44.412;11.918;2023-05-14T01:25:20;15.45;;;11.35;;
39314;SDS011;28703;44.412;11.918;2023-05-14T01:33:17;15.35;;;11.82;;
39314;SDS011;28703;44.412;11.918;2023-05-14T01:35:46;16.42;;;12.35;;
39314;SDS011;28703;44.412;11.918;2023-05-14T01:38:14;14.95;;;11.27;;
39314;SDS011;28703;44.412;11.918;2023-05-14T01:40:51;18.90;;;12.70;;
39314;SDS011;28703;44.412;11.918;2023-05-14T01:43:24;15.32;;;11.38;;
39314;SDS011;28703;44.412;11.918;2023-05-14T01:45:50;19.33;;;12.40;;
39314;SDS011;28703;44.412;11.918;2023-05-14T01:48:17;17.15;;;11.63;;
39314;SDS011;28703;44.412;11.918;2023-05-14T01:50:42;15.68;;;11.77;;
39314;SDS011;28703;44.412;11.918;2023-05-14T01:53:09;18.60;;;11.98;;
39314;SDS011;28703;44.412;11.918;2023-05-14T01:55:34;18.73;;;11.60;;
39314;SDS011;28703;44.412;11.918;2023-05-14T01:58:01;17.58;;;10.90;;
39314;SDS011;28703;44.412;11.918;2023-05-14T02:00:28;16.58;;;11.10;;
39314;SDS011;28703;44.412;11.918;2023-05-14T02:02:53;13.05;;;9.93;;
39314;SDS011;28703;44.412;11.918;2023-05-14T02:05:21;19.80;;;12.68;;
39314;SDS011;28703;44.412;11.918;2023-05-14T02:07:47;13.82;;;10.98;;
39314;SDS011;28703;44.412;11.918;2023-05-14T02:10:14;17.75;;;12.80;;
39314;SDS011;28703;44.412;11.918;2023-05-14T02:12:47;20.13;;;12.70;;
39314;SDS011;28703;44.412;11.918;2023-05-14T02:15:17;14.88;;;12.20;;
39314;SDS011;28703;44.412;11.918;2023-05-14T02:17:43;16.15;;;11.63;;
39314;SDS011;28703;44.412;11.918;2023-05-14T02:20:18;22.15;;;12.90;;
39314;SDS011;28703;44.412;11.918;2023-05-14T02:22:44;15.25;;;12.02;;
39314;SDS011;28703;44.412;11.918;2023-05-14T02:25:10;17.35;;;11.38;;
39314;SDS011;28703;44.412;11.918;2023-05-14T02:27:37;16.75;;;10.20;;
39314;SDS011;28703;44.412;11.918;2023-05-14T02:30:03;12.77;;;7.53;;
39314;SDS011;28703;44.412;11.918;2023-05-14T02:32:30;8.55;;;4.85;;
39314;SDS011;28703;44.412;11.918;2023-05-14T02:34:56;9.90;;;5.50;;
39314;SDS011;28703;44.412;11.918;2023-05-14T02:37:22;7.68;;;4.03;;
39314;SDS011;28703;44.412;11.918;2023-05-14T02:39:51;7.15;;;4.20;;
39314;SDS011;28703;44.412;11.918;2023-05-14T02:42:17;9.10;;;3.05;;
39314;SDS011;28703;44.412;11.918;2023-05-14T02:44:51;5.25;;;3.10;;
39314;SDS011;28703;44.412;11.918;2023-05-14T02:47:17;4.43;;;2.75;;
39314;SDS011;28703;44.412;11.918;2023-05-14T02:49:43;7.70;;;2.40;;
39314;SDS011;28703;44.412;11.918;2023-05-14T02:52:17;2.85;;;2.42;;
39314;SDS011;28703;44.412;11.918;2023-05-14T02:54:43;5.40;;;2.50;;
39314;SDS011;28703;44.412;11.918;2023-05-14T02:57:08;3.85;;;2.38;;
39314;SDS011;28703;44.412;11.918;2023-05-14T02:59:34;5.25;;;2.30;;
39314;SDS011;28703;44.412;11.918;2023-05-14T03:02:01;6.97;;;2.80;;
39314;SDS011;28703;44.412;11.918;2023-05-14T03:04:27;3.47;;;2.47;;
39314;SDS011;28703;44.412;11.918;2023-05-14T03:06:53;3.22;;;2.65;;
39314;SDS011;28703;44.412;11.918;2023-05-14T03:09:19;5.75;;;2.60;;
39314;SDS011;28703;44.412;11.918;2023-05-14T03:11:45;6.45;;;2.70;;
39314;SDS011;28703;44.412;11.918;2023-05-14T03:14:11;3.95;;;2.90;;
39314;SDS011;28703;44.412;11.918;2023-05-14T03:16:36;4.53;;;2.88;;
39314;SDS011;28703;44.412;11.918;2023-05-14T03:19:07;7.32;;;2.50;;
39314;SDS011;28703;44.412;11.918;2023-05-14T03:21:34;6.93;;;3.13;;
39314;SDS011;28703;44.412;11.918;2023-05-14T03:23:59;3.95;;;2.53;;
39314;SDS011;28703;44.412;11.918;2023-05-14T03:26:29;3.88;;;2.90;;
39314;SDS011;28703;44.412;11.918;2023-05-14T03:29:01;4.55;;;2.72;;
39314;SDS011;28703;44.412;11.918;2023-05-14T03:31:29;4.43;;;2.40;;
39314;SDS011;28703;44.412;11.918;2023-05-14T03:33:55;4.03;;;2.63;;
39314;SDS011;28703;44.412;11.918;2023-05-14T03:36:27;2.83;;;2.63;;
39314;SDS011;28703;44.412;11.918;2023-05-14T03:38:53;4.28;;;2.83;;
39314;SDS011;28703;44.412;11.918;2023-05-14T03:41:24;5.40;;;2.75;;
39314;SDS011;28703;44.412;11.918;2023-05-14T03:44:02;4.85;;;2.85;;
39314;SDS011;28703;44.412;11.918;2023-05-14T03:46:38;10.27;;;3.38;;
39314;SDS011;28703;44.412;11.918;2023-05-14T03:49:06;4.03;;;3.08;;
39314;SDS011;28703;44.412;11.918;2023-05-14T03:54:07;6.13;;;3.08;;
39314;SDS011;28703;44.412;11.918;2023-05-14T03:56:43;6.28;;;3.10;;
39314;SDS011;28703;44.412;11.918;2023-05-14T03:59:12;9.43;;;3.22;;
39314;SDS011;28703;44.412;11.918;2023-05-14T04:01:40;6.50;;;3.38;;
39314;SDS011;28703;44.412;11.918;2023-05-14T04:04:06;8.55;;;3.80;;
39314;SDS011;28703;44.412;11.918;2023-05-14T04:06:33;5.75;;;3.10;;
39314;SDS011;28703;44.412;11.918;2023-05-14T04:09:10;12.98;;;3.45;;
39314;SDS011;28703;44.412;11.918;2023-05-14T04:11:39;4.43;;;3.42;;
39314;SDS011;28703;44.412;11.918;2023-05-14T04:14:13;4.47;;;3.50;;
39314;SDS011;28703;44.412;11.918;2023-05-14T04:16:43;8.80;;;3.47;;
39314;SDS011;28703;44.412;11.918;2023-05-14T04:19:14;9.05;;;3.40;;
39314;SDS011;28703;44.412;11.918;2023-05-14T04:21:43;4.90;;;3.30;;
39314;SDS011;28703;44.412;11.918;2023-05-14T04:24:11;7.65;;;4.10;;
39314;SDS011;28703;44.412;11.918;2023-05-14T04:26:42;4.50;;;3.78;;
39314;SDS011;28703;44.412;11.918;2023-05-14T04:29:11;8.60;;;4.07;;
39314;SDS011;28703;44.412;11.918;2023-05-14T04:31:47;8.55;;;4.40;;
39314;SDS011;28703;44.412;11.918;2023-05-14T04:34:14;7.65;;;4.38;;
39314;SDS011;28703;44.412;11.918;2023-05-14T04:36:51;6.32;;;3.80;;
39314;SDS011;28703;44.412;11.918;2023-05-14T04:39:17;7.80;;;4.20;;
39314;SDS011;28703;44.412;11.918;2023-05-14T04:41:44;8.75;;;4.32;;
39314;SDS011;28703;44.412;11.918;2023-05-14T04:44:11;8.40;;;4.13;;
39314;SDS011;28703;44.412;11.918;2023-05-14T04:46:37;10.57;;;5.20;;
39314;SDS011;28703;44.412;11.918;2023-05-14T04:49:03;8.73;;;4.40;;
39314;SDS011;28703;44.412;11.918;2023-05-14T04:51:32;8.50;;;4.93;;
39314;SDS011;28703;44.412;11.918;2023-05-14T04:54:01;8.30;;;5.53;;
39314;SDS011;28703;44.412;11.918;2023-05-14T04:56:27;6.45;;;5.25;;
39314;SDS011;28703;44.412;11.918;2023-05-14T04:58:56;8.65;;;4.95;;
39314;SDS011;28703;44.412;11.918;2023-05-14T05:01:27;11.77;;;5.30;;
39314;SDS011;28703;44.412;11.918;2023-05-14T05:03:54;10.77;;;5.38;;
39314;SDS011;28703;44.412;11.918;2023-05-14T05:06:26;8.50;;;5.32;;
39314;SDS011;28703;44.412;11.918;2023-05-14T05:08:56;9.70;;;5.65;;
39314;SDS011;28703;44.412;11.918;2023-05-14T05:11:22;10.05;;;6.15;;
39314;SDS011;28703;44.412;11.918;2023-05-14T05:13:51;9.52;;;6.13;;
39314;SDS011;28703;44.412;11.918;2023-05-14T05:16:17;6.68;;;5.90;;
39314;SDS011;28703;44.412;11.918;2023-05-14T05:18:46;13.45;;;7.63;;
39314;SDS011;28703;44.412;11.918;2023-05-14T05:21:22;11.30;;;7.32;;
39314;SDS011;28703;44.412;11.918;2023-05-14T05:23:53;12.82;;;7.97;;
39314;SDS011;28703;44.412;11.918;2023-05-14T05:26:25;10.43;;;6.38;;
39314;SDS011;28703;44.412;11.918;2023-05-14T05:28:54;7.90;;;5.28;;
39314;SDS011;28703;44.412;11.918;2023-05-14T05:31:23;10.65;;;4.38;;
39314;SDS011;28703;44.412;11.918;2023-05-14T05:33:54;5.22;;;2.97;;
39314;SDS011;28703;44.412;11.918;2023-05-14T05:36:24;4.95;;;3.03;;
39314;SDS011;28703;44.412;11.918;2023-05-14T05:38:53;3.60;;;3.30;;
39314;SDS011;28703;44.412;11.918;2023-05-14T05:41:20;3.05;;;2.83;;
39314;SDS011;28703;44.412;11.918;2023-05-14T05:43:49;3.50;;;2.78;;
39314;SDS011;28703;44.412;11.918;2023-05-14T05:46:18;3.45;;;2.83;;
39314;SDS011;28703;44.412;11.918;2023-05-14T05:48:47;3.03;;;2.78;;
39314;SDS011;28703;44.412;11.918;2023-05-14T05:51:18;3.45;;;3.03;;
39314;SDS011;28703;44.412;11.918;2023-05-14T05:53:52;3.28;;;3.00;;
39314;SDS011;28703;44.412;11.918;2023-05-14T05:56:21;4.20;;;3.80;;
39314;SDS011;28703;44.412;11.918;2023-05-14T05:58:50;8.00;;;4.18;;
39314;SDS011;28703;44.412;11.918;2023-05-14T06:01:16;4.43;;;4.03;;
39314;SDS011;28703;44.412;11.918;2023-05-14T06:03:45;5.85;;;4.60;;
39314;SDS011;28703;44.412;11.918;2023-05-14T06:06:14;4.28;;;3.90;;
39314;SDS011;28703;44.412;11.918;2023-05-14T06:08:43;7.53;;;4.10;;
39314;SDS011;28703;44.412;11.918;2023-05-14T06:11:11;5.65;;;5.00;;
39314;SDS011;28703;44.412;11.918;2023-05-14T06:13:37;6.10;;;5.40;;
39314;SDS011;28703;44.412;11.918;2023-05-14T06:16:07;6.60;;;6.00;;
39314;SDS011;28703;44.412;11.918;2023-05-14T06:18:33;8.93;;;5.88;;
39314;SDS011;28703;44.412;11.918;2023-05-14T06:20:59;8.15;;;6.78;;
39314;SDS011;28703;44.412;11.918;2023-05-14T06:23:29;7.53;;;6.38;;
39314;SDS011;28703;44.412;11.918;2023-05-14T06:25:55;8.25;;;7.40;;
39314;SDS011;28703;44.412;11.918;2023-05-14T06:28:21;9.30;;;7.90;;
39314;SDS011;28703;44.412;11.918;2023-05-14T06:30:50;8.57;;;7.68;;
39314;SDS011;28703;44.412;11.918;2023-05-14T06:33:18;9.95;;;8.98;;
39314;SDS011;28703;44.412;11.918;2023-05-14T06:35:48;10.07;;;8.93;;
39314;SDS011;28703;44.412;11.918;2023-05-14T06:38:14;8.50;;;7.65;;
39314;SDS011;28703;44.412;11.918;2023-05-14T06:40:49;9.82;;;8.82;;
39314;SDS011;28703;44.412;11.918;2023-05-14T06:43:17;9.27;;;8.07;;
39314;SDS011;28703;44.412;11.918;2023-05-14T06:45:52;10.70;;;9.48;;
39314;SDS011;28703;44.412;11.918;2023-05-14T06:48:18;9.85;;;8.63;;
39314;SDS011;28703;44.412;11.918;2023-05-14T06:51:04;8.82;;;7.85;;
39314;SDS011;28703;44.412;11.918;2023-05-14T06:53:35;8.68;;;7.80;;
39314;SDS011;28703;44.412;11.918;2023-05-14T06:56:13;9.15;;;8.25;;
39314;SDS011;28703;44.412;11.918;2023-05-14T06:58:56;11.00;;;7.88;;
39314;SDS011;28703;44.412;11.918;2023-05-14T07:01:32;7.95;;;7.25;;
39314;SDS011;28703;44.412;11.918;2023-05-14T07:04:23;8.38;;;6.45;;
39314;SDS011;28703;44.412;11.918;2023-05-14T07:06:50;9.57;;;6.22;;
39314;SDS011;28703;44.412;11.918;2023-05-14T07:09:19;8.13;;;5.65;;
39314;SDS011;28703;44.412;11.918;2023-05-14T07:11:51;10.75;;;5.90;;
39314;SDS011;28703;44.412;11.918;2023-05-14T07:14:17;10.13;;;6.38;;
39314;SDS011;28703;44.412;11.918;2023-05-14T07:16:43;9.85;;;5.72;;
39314;SDS011;28703;44.412;11.918;2023-05-14T07:19:11;9.45;;;5.10;;
39314;SDS011;28703;44.412;11.918;2023-05-14T07:21:37;6.60;;;4.47;;
39314;SDS011;28703;44.412;11.918;2023-05-14T07:24:06;5.60;;;5.05;;
39314;SDS011;28703;44.412;11.918;2023-05-14T07:26:43;7.85;;;5.53;;
39314;SDS011;28703;44.412;11.918;2023-05-14T07:29:14;6.38;;;4.80;;
39314;SDS011;28703;44.412;11.918;2023-05-14T07:31:42;6.78;;;4.80;;
39314;SDS011;28703;44.412;11.918;2023-05-14T07:34:12;5.43;;;4.30;;
39314;SDS011;28703;44.412;11.918;2023-05-14T07:36:40;6.68;;;4.75;;
39314;SDS011;28703;44.412;11.918;2023-05-14T07:39:06;6.57;;;4.78;;
39314;SDS011;28703;44.412;11.918;2023-05-14T07:41:39;5.28;;;3.22;;
39314;SDS011;28703;44.412;11.918;2023-05-14T07:44:05;4.25;;;2.80;;
39314;SDS011;28703;44.412;11.918;2023-05-14T07:46:31;5.80;;;2.97;;
39314;SDS011;28703;44.412;11.918;2023-05-14T07:48:57;7.57;;;3.35;;
39314;SDS011;28703;44.412;11.918;2023-05-14T07:51:35;5.07;;;3.28;;
39314;SDS011;28703;44.412;11.918;2023-05-14T07:54:12;7.20;;;2.55;;
39314;SDS011;28703;44.412;11.918;2023-05-14T07:56:38;4.57;;;2.67;;
39314;SDS011;28703;44.412;11.918;2023-05-14T07:59:14;3.63;;;2.97;;
39314;SDS011;28703;44.412;11.918;2023-05-14T08:04:52;4.22;;;2.72;;
39314;SDS011;28703;44.412;11.918;2023-05-14T08:07:45;7.38;;;3.00;;
39314;SDS011;28703;44.412;11.918;2023-05-14T08:10:37;5.75;;;2.83;;
39314;SDS011;28703;44.412;11.918;2023-05-14T08:13:08;5.45;;;3.13;;
39314;SDS011;28703;44.412;11.918;2023-05-14T08:15:35;6.78;;;3.03;;
39314;SDS011;28703;44.412;11.918;2023-05-14T08:18:02;3.70;;;3.22;;
39314;SDS011;28703;44.412;11.918;2023-05-14T08:20:34;4.88;;;2.80;;
39314;SDS011;28703;44.412;11.918;2023-05-14T08:23:06;8.60;;;3.88;;
39314;SDS011;28703;44.412;11.918;2023-05-14T08:25:35;4.32;;;2.92;;
39314;SDS011;28703;44.412;11.918;2023-05-14T08:28:13;4.10;;;2.40;;
39314;SDS011;28703;44.412;11.918;2023-05-14T08:30:45;4.10;;;2.55;;
39314;SDS011;28703;44.412;11.918;2023-05-14T08:33:14;4.57;;;2.25;;
39314;SDS011;28703;44.412;11.918;2023-05-14T08:35:40;3.95;;;2.33;;
39314;SDS011;28703;44.412;11.918;2023-05-14T08:38:12;2.72;;;2.35;;
39314;SDS011;28703;44.412;11.918;2023-05-14T08:43:54;4.53;;;3.03;;
39314;SDS011;28703;44.412;11.918;2023-05-14T08:46:46;7.68;;;3.40;;
39314;SDS011;28703;44.412;11.918;2023-05-14T08:50:08;4.68;;;2.42;;
39314;SDS011;28703;44.412;11.918;2023-05-14T08:52:37;6.88;;;2.83;;
39314;SDS011;28703;44.412;11.918;2023-05-14T08:55:04;4.93;;;2.35;;
39314;SDS011;28703;44.412;11.918;2023-05-14T08:57:31;3.22;;;2.00;;
39314;SDS011;28703;44.412;11.918;2023-05-14T08:59:58;2.97;;;1.95;;
39314;SDS011;28703;44.412;11.918;2023-05-14T09:02:28;3.42;;;1.98;;
39314;SDS011;28703;44.412;11.918;2023-05-14T09:04:59;2.35;;;1.60;;
39314;SDS011;28703;44.412;11.918;2023-05-14T09:07:28;2.85;;;1.83;;
39314;SDS011;28703;44.412;11.918;2023-05-14T09:10:02;5.38;;;2.00;;
39314;SDS011;28703;44.412;11.918;2023-05-14T09:12:42;2.55;;;2.03;;
39314;SDS011;28703;44.412;11.918;2023-05-14T09:15:11;3.90;;;2.00;;
39314;SDS011;28703;44.412;11.918;2023-05-14T09:17:38;5.93;;;2.17;;
39314;SDS011;28703;44.412;11.918;2023-05-14T09:22:55;5.85;;;2.00;;
39314;SDS011;28703;44.412;11.918;2023-05-14T09:25:25;2.78;;;2.05;;
39314;SDS011;28703;44.412;11.918;2023-05-14T09:27:55;3.92;;;2.00;;
39314;SDS011;28703;44.412;11.918;2023-05-14T09:30:23;4.68;;;2.10;;
39314;SDS011;28703;44.412;11.918;2023-05-14T09:32:59;4.50;;;2.45;;
39314;SDS011;28703;44.412;11.918;2023-05-14T09:35:29;3.72;;;2.20;;
39314;SDS011;28703;44.412;11.918;2023-05-14T09:38:10;4.50;;;1.80;;
39314;SDS011;28703;44.412;11.918;2023-05-14T09:40:36;4.55;;;2.22;;
39314;SDS011;28703;44.412;11.918;2023-05-14T09:43:04;3.75;;;2.08;;
39314;SDS011;28703;44.412;11.918;2023-05-14T09:45:31;3.42;;;2.00;;
39314;SDS011;28703;44.412;11.918;2023-05-14T09:47:59;4.22;;;1.98;;
39314;SDS011;28703;44.412;11.918;2023-05-14T09:50:25;4.95;;;2.30;;
39314;SDS011;28703;44.412;11.918;2023-05-14T09:52:53;3.63;;;2.30;;
39314;SDS011;28703;44.412;11.918;2023-05-14T09:55:20;2.40;;;2.05;;
39314;SDS011;28703;44.412;11.918;2023-05-14T09:57:47;6.07;;;2.38;;
39314;SDS011;28703;44.412;11.918;2023-05-14T10:00:16;5.68;;;2.80;;
39314;SDS011;28703;44.412;11.918;2023-05-14T10:02:44;3.38;;;2.42;;
39314;SDS011;28703;44.412;11.918;2023-05-14T10:05:12;2.20;;;2.10;;
39314;SDS011;28703;44.412;11.918;2023-05-14T10:07:46;3.70;;;2.08;;
39314;SDS011;28703;44.412;11.918;2023-05-14T10:10:20;5.35;;;2.85;;
39314;SDS011;28703;44.412;11.918;2023-05-14T10:12:56;6.63;;;2.60;;
39314;SDS011;28703;44.412;11.918;2023-05-14T10:18:25;2.95;;;2.28;;
39314;SDS011;28703;44.412;11.918;2023-05-14T10:21:05;5.15;;;2.22;;
39314;SDS011;28703;44.412;11.918;2023-05-14T10:23:34;4.32;;;2.50;;
39314;SDS011;28703;44.412;11.918;2023-05-14T10:26:02;3.85;;;2.40;;
39314;SDS011;28703;44.412;11.918;2023-05-14T10:28:32;2.13;;;1.90;;
39314;SDS011;28703;44.412;11.918;2023-05-14T10:31:01;5.18;;;2.80;;
39314;SDS011;28703;44.412;11.918;2023-05-14T10:36:10;5.50;;;2.20;;
39314;SDS011;28703;44.412;11.918;2023-05-14T10:38:36;3.50;;;2.03;;
39314;SDS011;28703;44.412;11.918;2023-05-14T10:41:06;4.13;;;2.38;;
39314;SDS011;28703;44.412;11.918;2023-05-14T10:43:36;3.00;;;2.30;;
39314;SDS011;28703;44.412;11.918;2023-05-14T10:46:04;3.00;;;1.98;;
39314;SDS011;28703;44.412;11.918;2023-05-14T10:48:31;4.85;;;2.75;;
39314;SDS011;28703;44.412;11.918;2023-05-14T10:51:02;3.08;;;2.30;;
39314;SDS011;28703;44.412;11.918;2023-05-14T10:53:36;6.47;;;2.00;;
39314;SDS011;28703;44.412;11.918;2023-05-14T10:56:09;3.75;;;2.65;;
39314;SDS011;28703;44.412;11.918;2023-05-14T10:58:42;6.32;;;2.65;;
39314;SDS011;28703;44.412;11.918;2023-05-14T11:01:09;5.38;;;2.67;;
39314;SDS011;28703;44.412;11.918;2023-05-14T11:03:48;4.28;;;3.17;;
39314;SDS011;28703;44.412;11.918;2023-05-14T11:06:23;6.90;;;2.70;;
39314;SDS011;28703;44.412;11.918;2023-05-14T11:08:53;3.75;;;2.55;;
39314;SDS011;28703;44.412;11.918;2023-05-14T11:11:23;6.03;;;2.67;;
39314;SDS011;28703;44.412;11.918;2023-05-14T11:13:53;4.15;;;2.88;;
39314;SDS011;28703;44.412;11.918;2023-05-14T11:16:37;4.60;;;2.90;;
39314;SDS011;28703;44.412;11.918;2023-05-14T11:19:09;3.38;;;3.05;;
39314;SDS011;28703;44.412;11.918;2023-05-14T11:21:38;3.53;;;2.70;;
39314;SDS011;28703;44.412;11.918;2023-05-14T11:24:10;5.38;;;3.03;;
39314;SDS011;28703;44.412;11.918;2023-05-14T11:26:48;5.05;;;2.67;;
39314;SDS011;28703;44.412;11.918;2023-05-14T11:31:48;2.85;;;2.50;;
39314;SDS011;28703;44.412;11.918;2023-05-14T11:34:15;3.97;;;2.45;;
39314;SDS011;28703;44.412;11.918;2023-05-14T11:36:43;5.30;;;3.03;;
39314;SDS011;28703;44.412;11.918;2023-05-14T11:39:16;3.60;;;3.00;;
39314;SDS011;28703;44.412;11.918;2023-05-14T11:41:43;4.60;;;3.33;;
39314;SDS011;28703;44.412;11.918;2023-05-14T11:44:12;5.25;;;3.70;;
39314;SDS011;28703;44.412;11.918;2023-05-14T11:46:38;5.45;;;3.50;;
39314;SDS011;28703;44.412;11.918;2023-05-14T11:49:19;7.40;;;3.75;;
39314;SDS011;28703;44.412;11.918;2023-05-14T11:51:47;5.57;;;4.30;;
39314;SDS011;28703;44.412;11.918;2023-05-14T11:54:15;7.80;;;4.50;;
39314;SDS011;28703;44.412;11.918;2023-05-14T11:56:48;5.93;;;4.22;;
39314;SDS011;28703;44.412;11.918;2023-05-14T11:59:18;8.10;;;4.20;;
39314;SDS011;28703;44.412;11.918;2023-05-14T12:01:47;5.85;;;3.83;;
39314;SDS011;28703;44.412;11.918;2023-05-14T12:04:24;5.18;;;3.40;;
39314;SDS011;28703;44.412;11.918;2023-05-14T12:06:51;3.70;;;3.20;;
39314;SDS011;28703;44.412;11.918;2023-05-14T12:09:39;3.47;;;2.80;;
39314;SDS011;28703;44.412;11.918;2023-05-14T12:12:13;7.47;;;3.47;;
39314;SDS011;28703;44.412;11.918;2023-05-14T12:14:44;5.00;;;3.30;;
39314;SDS011;28703;44.412;11.918;2023-05-14T12:17:13;6.18;;;3.20;;
39314;SDS011;28703;44.412;11.918;2023-05-14T12:19:50;3.95;;;3.20;;
39314;SDS011;28703;44.412;11.918;2023-05-14T12:22:21;4.07;;;2.72;;
39314;SDS011;28703;44.412;11.918;2023-05-14T12:24:53;4.70;;;2.60;;
39314;SDS011;28703;44.412;11.918;2023-05-14T12:27:28;3.72;;;2.45;;
39314;SDS011;28703;44.412;11.918;2023-05-14T12:30:02;2.38;;;2.20;;
39314;SDS011;28703;44.412;11.918;2023-05-14T12:32:30;3.35;;;2.33;;
39314;SDS011;28703;44.412;11.918;2023-05-14T12:34:59;3.15;;;2.17;;
39314;SDS011;28703;44.412;11.918;2023-05-14T12:37:26;2.33;;;2.10;;
39314;SDS011;28703;44.412;11.918;2023-05-14T12:39:55;12.13;;;2.47;;
39314;SDS011;28703;44.412;11.918;2023-05-14T12:42:24;5.63;;;2.50;;
39314;SDS011;28703;44.412;11.918;2023-05-14T12:44:51;2.45;;;2.10;;
39314;SDS011;28703;44.412;11.918;2023-05-14T12:47:18;2.60;;;1.90;;
39314;SDS011;28703;44.412;11.918;2023-05-14T12:49:44;2.17;;;1.98;;
39314;SDS011;28703;44.412;11.918;2023-05-14T12:52:10;2.08;;;1.77;;
39314;SDS011;28703;44.412;11.918;2023-05-14T12:54:36;2.63;;;1.80;;
39314;SDS011;28703;44.412;11.918;2023-05-14T12:57:07;1.70;;;1.57;;
39314;SDS011;28703;44.412;11.918;2023-05-14T12:59:36;2.40;;;1.83;;
39314;SDS011;28703;44.412;11.918;2023-05-14T13:02:02;2.03;;;1.85;;
39314;SDS011;28703;44.412;11.918;2023-05-14T13:04:31;1.92;;;1.70;;
39314;SDS011;28703;44.412;11.918;2023-05-14T13:06:58;1.67;;;1.58;;
39314;SDS011;28703;44.412;11.918;2023-05-14T13:09:24;2.53;;;2.17;;
39314;SDS011;28703;44.412;11.918;2023-05-14T13:11:52;1.77;;;1.67;;
39314;SDS011;28703;44.412;11.918;2023-05-14T13:14:18;1.83;;;1.73;;
39314;SDS011;28703;44.412;11.918;2023-05-14T13:16:47;1.88;;;1.73;;
39314;SDS011;28703;44.412;11.918;2023-05-14T13:19:16;4.30;;;1.58;;
39314;SDS011;28703;44.412;11.918;2023-05-14T13:21:46;3.58;;;1.90;;
39314;SDS011;28703;44.412;11.918;2023-05-14T13:24:13;1.98;;;1.88;;
39314;SDS011;28703;44.412;11.918;2023-05-14T13:26:39;2.22;;;2.13;;
39314;SDS011;28703;44.412;11.918;2023-05-14T13:29:05;2.70;;;1.75;;
39314;SDS011;28703;44.412;11.918;2023-05-14T13:31:31;1.63;;;1.52;;
39314;SDS011;28703;44.412;11.918;2023-05-14T13:34:00;1.70;;;1.60;;
39314;SDS011;28703;44.412;11.918;2023-05-14T13:36:29;1.85;;;1.60;;
39314;SDS011;28703;44.412;11.918;2023-05-14T13:38:59;2.20;;;1.88;;
39314;SDS011;28703;44.412;11.918;2023-05-14T13:41:28;1.75;;;1.65;;
39314;SDS011;28703;44.412;11.918;2023-05-14T13:44:00;2.50;;;1.63;;
39314;SDS011;28703;44.412;11.918;2023-05-14T13:46:35;1.50;;;1.40;;
39314;SDS011;28703;44.412;11.918;2023-05-14T13:49:01;1.90;;;1.48;;
39314;SDS011;28703;44.412;11.918;2023-05-14T13:51:30;1.70;;;1.60;;
39314;SDS011;28703;44.412;11.918;2023-05-14T13:53:58;1.38;;;1.33;;
39314;SDS011;28703;44.412;11.918;2023-05-14T13:58:59;1.77;;;1.60;;
39314;SDS011;28703;44.412;11.918;2023-05-14T14:01:28;2.00;;;1.70;;
39314;SDS011;28703;44.412;11.918;2023-05-14T14:03:56;1.42;;;1.33;;
39314;SDS011;28703;44.412;11.918;2023-05-14T14:06:26;3.33;;;1.30;;
39314;SDS011;28703;44.412;11.918;2023-05-14T14:08:57;1.60;;;1.50;;
39314;SDS011;28703;44.412;11.918;2023-05-14T14:11:26;1.65;;;1.50;;
39314;SDS011;28703;44.412;11.918;2023-05-14T14:13:54;2.10;;;1.52;;
39314;SDS011;28703;44.412;11.918;2023-05-14T14:16:27;1.48;;;1.38;;
39314;SDS011;28703;44.412;11.918;2023-05-14T14:19:03;1.90;;;1.33;;
39314;SDS011;28703;44.412;11.918;2023-05-14T14:21:41;1.50;;;1.15;;
39314;SDS011;28703;44.412;11.918;2023-05-14T14:24:18;1.40;;;1.30;;
39314;SDS011;28703;44.412;11.918;2023-05-14T14:27:01;2.50;;;1.50;;
39314;SDS011;28703;44.412;11.918;2023-05-14T14:29:34;1.17;;;1.17;;
39314;SDS011;28703;44.412;11.918;2023-05-14T14:32:06;1.00;;;0.90;;
39314;SDS011;28703;44.412;11.918;2023-05-14T14:34:32;1.60;;;1.20;;
39314;SDS011;28703;44.412;11.918;2023-05-14T14:36:59;1.90;;;1.50;;
39314;SDS011;28703;44.412;11.918;2023-05-14T14:39:25;1.00;;;1.00;;
39314;SDS011;28703;44.412;11.918;2023-05-14T14:41:55;1.63;;;1.20;;
39314;SDS011;28703;44.412;11.918;2023-05-14T14:44:21;1.40;;;1.30;;
39314;SDS011;28703;44.412;11.918;2023-05-14T14:46:51;1.65;;;1.33;;
39314;SDS011;28703;44.412;11.918;2023-05-14T14:49:38;1.38;;;1.30;;
39314;SDS011;28703;44.412;11.918;2023-05-14T14:52:04;1.67;;;1.58;;
39314;SDS011;28703;44.412;11.918;2023-05-14T14:54:42;3.28;;;1.35;;
39314;SDS011;28703;44.412;11.918;2023-05-14T14:57:13;1.30;;;1.20;;
39314;SDS011;28703;44.412;11.918;2023-05-14T14:59:42;1.00;;;0.93;;
39314;SDS011;28703;44.412;11.918;2023-05-14T15:04:37;2.15;;;1.40;;
39314;SDS011;28703;44.412;11.918;2023-05-14T15:07:24;1.83;;;1.30;;
39314;SDS011;28703;44.412;11.918;2023-05-14T15:10:08;1.50;;;1.38;;
39314;SDS011;28703;44.412;11.918;2023-05-14T15:12:37;1.10;;;1.10;;
39314;SDS011;28703;44.412;11.918;2023-05-14T15:15:06;1.70;;;1.35;;
39314;SDS011;28703;44.412;11.918;2023-05-14T15:17:37;1.60;;;1.50;;
39314;SDS011;28703;44.412;11.918;2023-05-14T15:20:05;2.75;;;1.40;;
39314;SDS011;28703;44.412;11.918;2023-05-14T15:23:03;3.50;;;1.23;;
39314;SDS011;28703;44.412;11.918;2023-05-14T15:25:31;1.75;;;1.13;;